createdAt,value
2022-10-11T00:04:05.490Z,100.00
2022-10-11T00:09:28.770Z,100.00
2022-10-11T00:14:51.673Z,100.00
2022-10-11T00:20:14.480Z,100.00
2022-10-11T00:25:36.795Z,100.00
2022-10-11T00:31:00.551Z,100.00
2022-10-11T00:36:23.449Z,100.00
2022-10-11T00:41:47.726Z,100.00
2022-10-11T00:47:25.874Z,100.00
2022-10-11T00:52:58.865Z,100.00
2022-10-11T00:58:22.128Z,100.00
2022-10-11T01:03:47.501Z,100.00
2022-10-11T01:09:11.198Z,100.00
2022-10-11T01:14:49.925Z,100.00
2022-10-11T01:20:42.337Z,100.00
2022-10-11T01:26:32.311Z,100.00
2022-10-11T01:32:01.570Z,100.00
2022-10-11T01:37:33.949Z,100.00
2022-10-11T01:42:58.689Z,100.00
2022-10-11T01:48:28.882Z,100.00
2022-10-11T01:54:08.290Z,100.00
2022-10-11T02:00:04.768Z,100.00
2022-10-11T02:05:55.529Z,100.00
2022-10-11T02:11:41.813Z,100.00
2022-10-11T02:17:23.684Z,100.00
2022-10-11T02:22:49.777Z,100.00
2022-10-11T02:28:26.449Z,100.00
2022-10-11T02:34:14.500Z,100.00
2022-10-11T02:39:49.604Z,100.00
2022-10-11T02:45:26.099Z,100.00
2022-10-11T02:50:49.785Z,100.00
2022-10-11T02:56:13.804Z,100.00
2022-10-11T03:01:36.104Z,100.00
2022-10-11T03:06:58.273Z,100.00
2022-10-11T03:12:20.916Z,100.00
2022-10-11T03:17:43.063Z,100.00
2022-10-11T03:23:05.216Z,100.00
2022-10-11T03:28:27.415Z,100.00
2022-10-11T03:33:49.611Z,100.00
2022-10-11T03:39:12.508Z,100.00
2022-10-11T03:44:34.728Z,100.00
2022-10-11T03:49:56.909Z,100.00
2022-10-11T03:55:19.129Z,100.00
2022-10-11T04:00:42.220Z,100.00
2022-10-11T04:06:04.792Z,100.00
2022-10-11T04:11:27.656Z,100.00
2022-10-11T04:16:50.335Z,100.00
2022-10-11T04:22:12.508Z,100.00
2022-10-11T04:27:35.294Z,100.00
2022-10-11T04:32:57.681Z,100.00
2022-10-11T04:38:19.841Z,100.00
2022-10-11T04:43:42.046Z,100.00
2022-10-11T04:49:04.892Z,100.00
2022-10-11T04:54:27.046Z,100.00
2022-10-11T04:59:50.330Z,100.00
2022-10-11T05:05:15.390Z,100.00
2022-10-11T05:10:38.144Z,100.00
2022-10-11T05:16:00.405Z,100.00
2022-10-11T05:21:30.746Z,100.00
2022-10-11T05:26:53.081Z,100.00
2022-10-11T05:32:15.239Z,100.00
2022-10-11T05:37:38.484Z,100.00
2022-10-11T05:43:00.716Z,100.00
2022-10-11T05:48:24.656Z,100.00
2022-10-11T05:53:47.251Z,100.00
2022-10-11T05:59:10.623Z,100.00
2022-10-11T06:04:32.815Z,100.00
2022-10-11T06:09:55.605Z,100.00
2022-10-11T06:15:18.119Z,100.00
2022-10-11T06:20:40.248Z,100.00
2022-10-11T06:26:12.451Z,100.00
2022-10-11T06:31:34.571Z,100.00
2022-10-11T06:36:56.706Z,100.00
2022-10-11T06:42:19.490Z,100.00
2022-10-11T06:47:41.741Z,100.00
2022-10-11T06:53:05.623Z,100.00
2022-10-11T06:58:27.767Z,100.00
2022-10-11T07:03:50.191Z,100.00
2022-10-11T07:09:14.132Z,100.00
2022-10-11T07:14:36.722Z,97.50
2022-10-11T07:19:59.885Z,94.91
2022-10-11T07:25:22.226Z,92.37
2022-10-11T07:30:45.392Z,90.17
2022-10-11T07:36:11.150Z,88.19
2022-10-11T07:41:33.443Z,86.89
2022-10-11T07:46:55.568Z,85.56
2022-10-11T07:52:17.945Z,85.08
2022-10-11T07:57:40.591Z,84.08
2022-10-11T08:03:03.771Z,83.07
2022-10-11T08:08:25.904Z,81.59
2022-10-11T08:13:48.136Z,80.46
2022-10-11T08:19:11.259Z,79.52
2022-10-11T08:24:38.004Z,78.25
2022-10-11T08:29:57.258Z,77.33
2022-10-11T08:35:19.573Z,77.04
2022-10-11T08:40:43.317Z,75.14
2022-10-11T08:46:11.707Z,74.72
2022-10-11T08:51:42.203Z,74.14
2022-10-11T08:56:58.515Z,74.51
2022-10-11T09:02:55.544Z,74.35
2022-10-11T09:08:23.078Z,72.60
2022-10-11T09:14:27.621Z,71.82
2022-10-11T09:20:03.454Z,71.09
2022-10-11T09:25:50.062Z,69.90
2022-10-11T09:31:14.428Z,68.93
2022-10-11T09:37:20.140Z,66.91
2022-10-11T09:42:42.356Z,66.74
2022-10-11T09:48:07.015Z,65.44
2022-10-11T09:53:30.979Z,65.22
2022-10-11T09:58:54.981Z,62.35
2022-10-11T10:04:26.887Z,60.88
2022-10-11T10:09:50.195Z,58.72
2022-10-11T10:15:23.663Z,58.16
2022-10-11T10:20:48.460Z,57.89
2022-10-11T10:26:28.194Z,58.06
2022-10-11T10:32:13.914Z,56.21
2022-10-11T10:37:33.909Z,56.49
2022-10-11T10:42:56.785Z,55.62
2022-10-11T10:49:28.682Z,56.32
2022-10-11T10:55:00.984Z,53.48
2022-10-11T11:00:39.508Z,56.02
2022-10-11T11:06:09.275Z,57.83
2022-10-11T11:11:42.626Z,57.50
2022-10-11T11:17:21.394Z,57.90
2022-10-11T11:23:14.745Z,57.06
2022-10-11T11:29:10.240Z,57.70
2022-10-11T11:34:45.824Z,52.66
2022-10-11T11:40:27.877Z,49.16
2022-10-11T11:46:01.623Z,46.50
2022-10-11T11:51:41.438Z,46.84
2022-10-11T11:57:33.795Z,46.69
2022-10-11T12:03:18.589Z,47.26
2022-10-11T12:08:43.929Z,48.37
2022-10-11T12:14:07.816Z,44.79
2022-10-11T12:19:33.126Z,40.09
2022-10-11T12:31:04.765Z,39.24
2022-10-11T12:36:47.771Z,40.08
2022-10-11T12:42:14.536Z,40.32
2022-10-11T12:48:02.116Z,40.93
2022-10-11T12:53:44.467Z,42.57
2022-10-11T12:59:09.407Z,43.91
2022-10-11T13:04:35.841Z,44.34
2022-10-11T13:09:59.370Z,41.61
2022-10-11T13:15:27.879Z,39.68
2022-10-11T13:20:51.697Z,40.71
2022-10-11T13:26:15.239Z,42.84
2022-10-11T13:31:37.753Z,41.81
2022-10-11T13:37:04.425Z,41.94
2022-10-11T13:42:34.079Z,39.23
2022-10-11T13:47:57.226Z,38.63
2022-10-11T13:53:24.357Z,37.60
2022-10-11T13:58:53.850Z,38.17
2022-10-11T14:04:26.132Z,36.99
2022-10-11T14:09:52.451Z,36.14
2022-10-11T14:15:32.287Z,37.37
2022-10-11T14:20:58.162Z,38.65
2022-10-11T14:26:22.668Z,41.67
2022-10-11T14:31:46.257Z,43.99
2022-10-11T14:37:09.250Z,45.15
2022-10-11T14:42:31.890Z,44.17
2022-10-11T14:47:54.080Z,44.92
2022-10-11T14:53:18.052Z,46.34
2022-10-11T14:58:40.234Z,47.28
2022-10-11T15:04:02.862Z,47.13
2022-10-11T15:09:26.150Z,45.52
2022-10-11T15:14:48.305Z,44.47
2022-10-11T15:20:10.640Z,44.50
2022-10-11T15:25:33.714Z,45.40
2022-10-11T15:30:56.383Z,45.91
2022-10-11T15:36:22.763Z,47.62
2022-10-11T15:41:45.056Z,49.26
2022-10-11T15:47:07.262Z,51.49
2022-10-11T15:52:29.954Z,53.59
2022-10-11T15:57:52.095Z,56.13
2022-10-11T16:03:17.087Z,58.25
2022-10-11T16:08:40.368Z,59.67
2022-10-11T16:14:02.904Z,61.41
2022-10-11T16:19:25.535Z,62.53
2022-10-11T16:24:47.978Z,63.84
2022-10-11T16:30:12.104Z,64.98
2022-10-11T16:35:34.996Z,66.49
2022-10-11T16:40:58.707Z,67.45
2022-10-11T16:46:20.858Z,67.75
2022-10-11T16:51:43.424Z,69.34
2022-10-11T16:57:07.215Z,70.55
2022-10-11T17:02:40.081Z,71.64
2022-10-11T17:08:03.168Z,72.78
2022-10-11T17:13:26.822Z,73.67
2022-10-11T17:18:50.923Z,74.66
2022-10-11T17:24:13.798Z,75.68
2022-10-11T17:29:36.139Z,77.21
2022-10-11T17:34:59.374Z,77.53
2022-10-11T17:40:22.491Z,78.34
2022-10-11T17:45:45.074Z,79.31
2022-10-11T17:51:09.642Z,79.87
2022-10-11T17:56:37.886Z,80.49
2022-10-11T18:01:59.735Z,80.84
2022-10-11T18:07:21.953Z,81.87
2022-10-11T18:12:44.107Z,82.86
2022-10-11T18:18:08.292Z,84.44
2022-10-11T18:23:31.280Z,85.29
2022-10-11T18:28:55.669Z,85.67
2022-10-11T18:34:19.833Z,86.47
2022-10-11T18:39:42.364Z,87.26
2022-10-11T18:45:04.612Z,87.00
2022-10-11T18:50:27.031Z,85.65
2022-10-11T18:55:49.718Z,84.79
2022-10-11T19:01:24.077Z,84.23
2022-10-11T19:06:54.066Z,83.02
2022-10-11T19:12:16.661Z,82.11
2022-10-11T19:17:38.854Z,81.04
2022-10-11T19:23:01.487Z,80.96
2022-10-11T19:28:23.670Z,80.95
2022-10-11T19:33:48.181Z,80.68
2022-10-11T19:39:11.255Z,80.57
2022-10-11T19:44:38.661Z,81.39
2022-10-11T19:49:59.388Z,82.08
2022-10-11T19:55:22.501Z,82.54
2022-10-11T20:00:44.728Z,83.47
2022-10-11T20:06:08.478Z,84.81
2022-10-11T20:11:32.076Z,85.70
2022-10-11T20:16:55.883Z,84.84
2022-10-11T20:22:22.350Z,84.81
2022-10-11T20:27:44.669Z,85.00
2022-10-11T20:33:06.797Z,85.60
2022-10-11T20:38:29.481Z,85.74
2022-10-11T20:43:55.219Z,86.08
2022-10-11T20:49:22.969Z,85.92
2022-10-11T20:54:45.103Z,86.08
2022-10-11T21:00:07.257Z,86.64
2022-10-11T21:05:29.560Z,87.21
2022-10-11T21:10:53.442Z,87.94
2022-10-11T21:16:19.829Z,88.97
2022-10-11T21:21:42.500Z,89.62
2022-10-11T21:27:05.064Z,89.84
2022-10-11T21:32:27.817Z,90.20
2022-10-11T21:37:49.968Z,90.99
2022-10-11T21:43:13.364Z,91.50
2022-10-11T21:48:36.333Z,92.19
2022-10-11T21:54:00.647Z,93.01
2022-10-11T21:59:23.526Z,93.19
2022-10-11T22:04:45.768Z,93.48
2022-10-11T22:10:07.919Z,94.18
2022-10-11T22:15:30.059Z,94.95
2022-10-11T22:20:52.521Z,95.02
2022-10-11T22:26:20.251Z,94.84
2022-10-11T22:31:42.933Z,95.64
2022-10-11T22:37:05.072Z,96.25
2022-10-11T22:42:27.808Z,96.92
2022-10-11T22:47:50.039Z,97.69
2022-10-11T22:53:12.851Z,97.63
2022-10-11T22:58:35.816Z,97.73
2022-10-11T23:04:01.108Z,98.22
2022-10-11T23:09:24.942Z,99.06
2022-10-11T23:14:47.100Z,99.59
2022-10-11T23:20:09.290Z,99.96
2022-10-11T23:25:31.530Z,100.00
2022-10-11T23:30:53.732Z,100.00
2022-10-11T23:36:23.197Z,100.00
2022-10-11T23:41:47.509Z,100.00
2022-10-11T23:47:10.582Z,100.00
2022-10-11T23:52:32.726Z,100.00
2022-10-11T23:57:55.275Z,100.00
